sensor_id;sensor_type;location;lat;lon;timestamp;temperature;humidity
33863;DHT22;20158;51.436;-2.742;2023-03-25T00:01:05;12.10;60.30
33863;DHT22;20158;51.436;-2.742;2023-03-25T00:03:35;12.10;60.20
33863;DHT22;20158;51.436;-2.742;2023-03-25T00:06:09;12.10;60.20
33863;DHT22;20158;51.436;-2.742;2023-03-25T00:08:35;12.10;60.20
33863;DHT22;20158;51.436;-2.742;2023-03-25T00:11:02;12.10;60.20
33863;DHT22;20158;51.436;-2.742;2023-03-25T00:13:33;12.10;60.20
33863;DHT22;20158;51.436;-2.742;2023-03-25T00:16:02;12.10;60.20
33863;DHT22;20158;51.436;-2.742;2023-03-25T00:18:32;12.10;60.20
33863;DHT22;20158;51.436;-2.742;2023-03-25T00:20:59;12.10;60.20
33863;DHT22;20158;51.436;-2.742;2023-03-25T00:23:27;12.10;60.20
33863;DHT22;20158;51.436;-2.742;2023-03-25T00:25:54;12.10;60.10
33863;DHT22;20158;51.436;-2.742;2023-03-25T00:28:27;12.10;60.10
33863;DHT22;20158;51.436;-2.742;2023-03-25T00:30:58;12.10;60.10
33863;DHT22;20158;51.436;-2.742;2023-03-25T00:33:25;12.20;60.30
33863;DHT22;20158;51.436;-2.742;2023-03-25T00:35:52;12.20;60.30
33863;DHT22;20158;51.436;-2.742;2023-03-25T00:38:28;12.10;60.10
33863;DHT22;20158;51.436;-2.742;2023-03-25T00:43:35;12.10;60.10
33863;DHT22;20158;51.436;-2.742;2023-03-25T00:46:01;12.10;60.10
33863;DHT22;20158;51.436;-2.742;2023-03-25T00:48:27;12.20;60.40
33863;DHT22;20158;51.436;-2.742;2023-03-25T00:50:53;12.10;60.20
33863;DHT22;20158;51.436;-2.742;2023-03-25T00:53:18;12.10;60.30
33863;DHT22;20158;51.436;-2.742;2023-03-25T00:55:44;12.10;60.30
33863;DHT22;20158;51.436;-2.742;2023-03-25T00:58:10;12.10;60.40
33863;DHT22;20158;51.436;-2.742;2023-03-25T01:00:36;12.10;60.50
33863;DHT22;20158;51.436;-2.742;2023-03-25T01:03:03;12.10;60.50
33863;DHT22;20158;51.436;-2.742;2023-03-25T01:05:29;12.10;60.50
33863;DHT22;20158;51.436;-2.742;2023-03-25T01:07:55;12.10;60.50
33863;DHT22;20158;51.436;-2.742;2023-03-25T01:10:22;12.10;60.60
33863;DHT22;20158;51.436;-2.742;2023-03-25T01:12:48;12.10;60.60
33863;DHT22;20158;51.436;-2.742;2023-03-25T01:15:14;12.10;60.70
33863;DHT22;20158;51.436;-2.742;2023-03-25T01:17:40;12.10;60.70
33863;DHT22;20158;51.436;-2.742;2023-03-25T01:20:06;12.10;60.80
33863;DHT22;20158;51.436;-2.742;2023-03-25T01:22:35;12.10;60.80
33863;DHT22;20158;51.436;-2.742;2023-03-25T01:25:02;12.10;60.80
33863;DHT22;20158;51.436;-2.742;2023-03-25T01:27:29;12.00;60.70
33863;DHT22;20158;51.436;-2.742;2023-03-25T01:29:55;12.00;60.70
33863;DHT22;20158;51.436;-2.742;2023-03-25T01:32:22;12.00;60.80
33863;DHT22;20158;51.436;-2.742;2023-03-25T01:34:48;12.00;60.80
33863;DHT22;20158;51.436;-2.742;2023-03-25T01:37:14;12.00;60.90
33863;DHT22;20158;51.436;-2.742;2023-03-25T01:39:40;12.00;60.90
33863;DHT22;20158;51.436;-2.742;2023-03-25T01:42:06;11.90;60.80
33863;DHT22;20158;51.436;-2.742;2023-03-25T01:47:02;11.90;60.90
33863;DHT22;20158;51.436;-2.742;2023-03-25T01:49:34;11.90;61.00
33863;DHT22;20158;51.436;-2.742;2023-03-25T01:54:38;11.90;61.00
33863;DHT22;20158;51.436;-2.742;2023-03-25T01:57:05;11.90;61.10
33863;DHT22;20158;51.436;-2.742;2023-03-25T01:59:33;11.90;61.10
33863;DHT22;20158;51.436;-2.742;2023-03-25T02:02:02;11.90;61.10
33863;DHT22;20158;51.436;-2.742;2023-03-25T02:04:44;11.90;61.20
33863;DHT22;20158;51.436;-2.742;2023-03-25T02:07:16;11.90;61.20
33863;DHT22;20158;51.436;-2.742;2023-03-25T02:09:43;11.90;61.20
33863;DHT22;20158;51.436;-2.742;2023-03-25T02:12:09;11.90;61.20
33863;DHT22;20158;51.436;-2.742;2023-03-25T02:14:36;11.90;61.20
33863;DHT22;20158;51.436;-2.742;2023-03-25T02:17:31;11.90;61.20
33863;DHT22;20158;51.436;-2.742;2023-03-25T02:28:14;11.90;61.40
33863;DHT22;20158;51.436;-2.742;2023-03-25T02:33:41;11.80;61.40
33863;DHT22;20158;51.436;-2.742;2023-03-25T02:39:01;11.80;61.50
33863;DHT22;20158;51.436;-2.742;2023-03-25T02:46:50;11.80;61.60
33863;DHT22;20158;51.436;-2.742;2023-03-25T02:49:24;11.80;61.70
33863;DHT22;20158;51.436;-2.742;2023-03-25T02:52:05;11.70;61.60
33863;DHT22;20158;51.436;-2.742;2023-03-25T02:54:34;11.80;61.80
33863;DHT22;20158;51.436;-2.742;2023-03-25T02:57:02;11.80;61.80
33863;DHT22;20158;51.436;-2.742;2023-03-25T02:59:30;11.80;61.80
33863;DHT22;20158;51.436;-2.742;2023-03-25T03:02:02;11.80;61.80
33863;DHT22;20158;51.436;-2.742;2023-03-25T03:04:29;11.70;61.70
33863;DHT22;20158;51.436;-2.742;2023-03-25T03:06:56;11.80;61.90
33863;DHT22;20158;51.436;-2.742;2023-03-25T03:15:10;11.70;61.90
33863;DHT22;20158;51.436;-2.742;2023-03-25T03:17:44;11.70;61.90
33863;DHT22;20158;51.436;-2.742;2023-03-25T03:23:08;11.70;62.00
33863;DHT22;20158;51.436;-2.742;2023-03-25T03:25:44;11.70;62.10
33863;DHT22;20158;51.436;-2.742;2023-03-25T03:31:13;11.60;62.00
33863;DHT22;20158;51.436;-2.742;2023-03-25T03:33:55;11.70;62.10
33863;DHT22;20158;51.436;-2.742;2023-03-25T03:36:28;11.60;62.00
33863;DHT22;20158;51.436;-2.742;2023-03-25T03:39:03;11.70;62.20
33863;DHT22;20158;51.436;-2.742;2023-03-25T03:41:34;11.60;62.10
33863;DHT22;20158;51.436;-2.742;2023-03-25T03:44:03;11.70;62.30
33863;DHT22;20158;51.436;-2.742;2023-03-25T03:46:45;11.60;62.20
33863;DHT22;20158;51.436;-2.742;2023-03-25T03:49:16;11.60;62.20
33863;DHT22;20158;51.436;-2.742;2023-03-25T03:52:04;11.60;62.20
33863;DHT22;20158;51.436;-2.742;2023-03-25T03:54:41;11.60;62.20
33863;DHT22;20158;51.436;-2.742;2023-03-25T03:57:34;11.60;62.20
33863;DHT22;20158;51.436;-2.742;2023-03-25T04:05:10;11.50;61.90
33863;DHT22;20158;51.436;-2.742;2023-03-25T04:07:42;11.50;62.00
33863;DHT22;20158;51.436;-2.742;2023-03-25T04:10:13;11.50;62.10
33863;DHT22;20158;51.436;-2.742;2023-03-25T04:12:50;11.50;62.10
33863;DHT22;20158;51.436;-2.742;2023-03-25T04:15:17;11.50;62.10
33863;DHT22;20158;51.436;-2.742;2023-03-25T04:17:44;11.50;62.20
33863;DHT22;20158;51.436;-2.742;2023-03-25T04:20:14;11.50;62.20
33863;DHT22;20158;51.436;-2.742;2023-03-25T04:22:40;11.50;62.30
33863;DHT22;20158;51.436;-2.742;2023-03-25T04:25:11;11.40;62.20
33863;DHT22;20158;51.436;-2.742;2023-03-25T04:27:39;11.40;62.20
33863;DHT22;20158;51.436;-2.742;2023-03-25T04:30:07;11.40;62.20
33863;DHT22;20158;51.436;-2.742;2023-03-25T04:32:33;11.40;62.30
33863;DHT22;20158;51.436;-2.742;2023-03-25T04:34:59;11.40;62.30
33863;DHT22;20158;51.436;-2.742;2023-03-25T04:37:26;11.40;62.40
33863;DHT22;20158;51.436;-2.742;2023-03-25T04:39:53;11.40;62.40
33863;DHT22;20158;51.436;-2.742;2023-03-25T04:42:21;11.40;62.50
33863;DHT22;20158;51.436;-2.742;2023-03-25T04:45:00;11.40;62.50
33863;DHT22;20158;51.436;-2.742;2023-03-25T04:47:29;11.30;62.40
33863;DHT22;20158;51.436;-2.742;2023-03-25T04:49:55;11.40;62.50
33863;DHT22;20158;51.436;-2.742;2023-03-25T04:52:21;11.40;62.50
33863;DHT22;20158;51.436;-2.742;2023-03-25T04:54:47;11.40;62.50
33863;DHT22;20158;51.436;-2.742;2023-03-25T04:57:13;11.30;62.40
33863;DHT22;20158;51.436;-2.742;2023-03-25T04:59:39;11.40;62.60
33863;DHT22;20158;51.436;-2.742;2023-03-25T05:02:06;11.40;62.60
33863;DHT22;20158;51.436;-2.742;2023-03-25T05:04:41;11.30;62.40
33863;DHT22;20158;51.436;-2.742;2023-03-25T05:07:13;11.30;62.50
33863;DHT22;20158;51.436;-2.742;2023-03-25T05:09:41;11.40;62.70
33863;DHT22;20158;51.436;-2.742;2023-03-25T05:12:07;11.30;62.50
33863;DHT22;20158;51.436;-2.742;2023-03-25T05:14:36;11.30;62.50
33863;DHT22;20158;51.436;-2.742;2023-03-25T05:17:02;11.30;62.60
33863;DHT22;20158;51.436;-2.742;2023-03-25T05:19:28;11.30;62.60
33863;DHT22;20158;51.436;-2.742;2023-03-25T05:21:54;11.30;62.70
33863;DHT22;20158;51.436;-2.742;2023-03-25T05:24:20;11.30;62.60
33863;DHT22;20158;51.436;-2.742;2023-03-25T05:26:46;11.30;62.70
33863;DHT22;20158;51.436;-2.742;2023-03-25T05:29:14;11.30;62.70
33863;DHT22;20158;51.436;-2.742;2023-03-25T05:31:41;11.40;62.90
33863;DHT22;20158;51.436;-2.742;2023-03-25T05:34:09;11.30;62.80
33863;DHT22;20158;51.436;-2.742;2023-03-25T05:36:35;11.30;62.80
33863;DHT22;20158;51.436;-2.742;2023-03-25T05:39:02;11.40;63.00
33863;DHT22;20158;51.436;-2.742;2023-03-25T05:41:29;11.40;63.00
33863;DHT22;20158;51.436;-2.742;2023-03-25T05:43:59;11.40;63.00
33863;DHT22;20158;51.436;-2.742;2023-03-25T05:46:26;11.40;63.00
33863;DHT22;20158;51.436;-2.742;2023-03-25T05:48:54;11.40;63.00
33863;DHT22;20158;51.436;-2.742;2023-03-25T05:51:24;11.40;63.10
33863;DHT22;20158;51.436;-2.742;2023-03-25T05:53:50;11.40;63.10
33863;DHT22;20158;51.436;-2.742;2023-03-25T05:56:21;11.40;63.10
33863;DHT22;20158;51.436;-2.742;2023-03-25T05:58:49;11.40;63.20
33863;DHT22;20158;51.436;-2.742;2023-03-25T06:01:17;11.40;63.20
33863;DHT22;20158;51.436;-2.742;2023-03-25T06:03:44;11.40;63.20
33863;DHT22;20158;51.436;-2.742;2023-03-25T06:06:11;11.40;63.30
33863;DHT22;20158;51.436;-2.742;2023-03-25T06:08:49;11.40;63.30
33863;DHT22;20158;51.436;-2.742;2023-03-25T06:11:16;11.40;63.30
33863;DHT22;20158;51.436;-2.742;2023-03-25T06:13:44;11.40;63.30
33863;DHT22;20158;51.436;-2.742;2023-03-25T06:16:19;11.40;63.40
33863;DHT22;20158;51.436;-2.742;2023-03-25T06:18:47;11.40;63.40
33863;DHT22;20158;51.436;-2.742;2023-03-25T06:21:18;11.40;63.50
33863;DHT22;20158;51.436;-2.742;2023-03-25T06:23:46;11.40;63.50
33863;DHT22;20158;51.436;-2.742;2023-03-25T06:26:15;11.40;63.50
33863;DHT22;20158;51.436;-2.742;2023-03-25T06:28:42;11.40;63.50
33863;DHT22;20158;51.436;-2.742;2023-03-25T06:31:17;11.40;63.50
33863;DHT22;20158;51.436;-2.742;2023-03-25T06:33:44;11.40;63.60
33863;DHT22;20158;51.436;-2.742;2023-03-25T06:36:12;11.40;63.60
33863;DHT22;20158;51.436;-2.742;2023-03-25T06:38:38;11.50;63.80
33863;DHT22;20158;51.436;-2.742;2023-03-25T06:41:08;11.50;63.80
33863;DHT22;20158;51.436;-2.742;2023-03-25T06:43:36;11.50;63.80
33863;DHT22;20158;51.436;-2.742;2023-03-25T06:46:25;11.50;64.10
33863;DHT22;20158;51.436;-2.742;2023-03-25T06:49:15;11.50;63.70
33863;DHT22;20158;51.436;-2.742;2023-03-25T06:51:41;11.60;63.90
33863;DHT22;20158;51.436;-2.742;2023-03-25T06:54:07;11.60;63.90
33863;DHT22;20158;51.436;-2.742;2023-03-25T06:56:33;11.60;63.90
33863;DHT22;20158;51.436;-2.742;2023-03-25T06:58:59;11.60;63.90
33863;DHT22;20158;51.436;-2.742;2023-03-25T07:01:27;11.70;64.00
33863;DHT22;20158;51.436;-2.742;2023-03-25T07:03:53;11.70;64.00
33863;DHT22;20158;51.436;-2.742;2023-03-25T07:06:23;11.70;63.90
33863;DHT22;20158;51.436;-2.742;2023-03-25T07:08:52;11.80;64.10
33863;DHT22;20158;51.436;-2.742;2023-03-25T07:11:27;11.80;64.00
33863;DHT22;20158;51.436;-2.742;2023-03-25T07:13:54;11.80;63.80
33863;DHT22;20158;51.436;-2.742;2023-03-25T07:16:21;11.90;63.90
33863;DHT22;20158;51.436;-2.742;2023-03-25T07:18:49;11.90;63.80
33863;DHT22;20158;51.436;-2.742;2023-03-25T07:21:16;11.90;63.80
33863;DHT22;20158;51.436;-2.742;2023-03-25T07:23:42;12.00;64.00
33863;DHT22;20158;51.436;-2.742;2023-03-25T07:26:09;12.00;63.90
33863;DHT22;20158;51.436;-2.742;2023-03-25T07:28:35;12.10;64.00
33863;DHT22;20158;51.436;-2.742;2023-03-25T07:31:11;12.10;64.20
33863;DHT22;20158;51.436;-2.742;2023-03-25T07:33:38;12.30;65.40
33863;DHT22;20158;51.436;-2.742;2023-03-25T07:36:05;12.40;65.70
33863;DHT22;20158;51.436;-2.742;2023-03-25T07:38:35;12.50;66.10
33863;DHT22;20158;51.436;-2.742;2023-03-25T07:41:10;12.70;66.70
33863;DHT22;20158;51.436;-2.742;2023-03-25T07:43:44;12.80;66.90
33863;DHT22;20158;51.436;-2.742;2023-03-25T07:46:40;13.00;66.90
33863;DHT22;20158;51.436;-2.742;2023-03-25T07:49:09;13.00;66.70
33863;DHT22;20158;51.436;-2.742;2023-03-25T07:51:35;13.10;66.80
33863;DHT22;20158;51.436;-2.742;2023-03-25T07:54:01;13.10;66.60
33863;DHT22;20158;51.436;-2.742;2023-03-25T07:56:27;13.20;66.70
33863;DHT22;20158;51.436;-2.742;2023-03-25T07:58:53;13.30;66.70
33863;DHT22;20158;51.436;-2.742;2023-03-25T08:01:18;13.40;66.60
33863;DHT22;20158;51.436;-2.742;2023-03-25T08:03:45;13.50;66.50
33863;DHT22;20158;51.436;-2.742;2023-03-25T08:06:11;13.60;66.50
33863;DHT22;20158;51.436;-2.742;2023-03-25T08:08:37;13.70;66.50
33863;DHT22;20158;51.436;-2.742;2023-03-25T08:11:03;13.80;66.30
33863;DHT22;20158;51.436;-2.742;2023-03-25T08:13:30;13.90;66.20
33863;DHT22;20158;51.436;-2.742;2023-03-25T08:15:56;14.00;66.10
33863;DHT22;20158;51.436;-2.742;2023-03-25T08:18:23;14.10;65.90
33863;DHT22;20158;51.436;-2.742;2023-03-25T08:20:49;14.20;66.00
33863;DHT22;20158;51.436;-2.742;2023-03-25T08:23:16;14.40;67.00
33863;DHT22;20158;51.436;-2.742;2023-03-25T08:25:43;14.70;67.70
33863;DHT22;20158;51.436;-2.742;2023-03-25T08:28:09;15.00;68.40
33863;DHT22;20158;51.436;-2.742;2023-03-25T08:30:36;15.30;67.80
33863;DHT22;20158;51.436;-2.742;2023-03-25T08:33:05;15.40;67.50
33863;DHT22;20158;51.436;-2.742;2023-03-25T08:35:33;15.60;67.40
33863;DHT22;20158;51.436;-2.742;2023-03-25T08:37:59;15.80;67.40
33863;DHT22;20158;51.436;-2.742;2023-03-25T08:40:26;15.80;67.00
33863;DHT22;20158;51.436;-2.742;2023-03-25T08:42:53;15.90;66.80
33863;DHT22;20158;51.436;-2.742;2023-03-25T08:45:19;16.00;66.60
33863;DHT22;20158;51.436;-2.742;2023-03-25T08:47:45;16.10;66.60
33863;DHT22;20158;51.436;-2.742;2023-03-25T08:50:12;16.10;66.30
33863;DHT22;20158;51.436;-2.742;2023-03-25T08:52:41;16.10;65.90
33863;DHT22;20158;51.436;-2.742;2023-03-25T08:55:08;16.20;65.90
33863;DHT22;20158;51.436;-2.742;2023-03-25T08:57:35;16.20;65.60
33863;DHT22;20158;51.436;-2.742;2023-03-25T09:00:04;16.30;65.60
33863;DHT22;20158;51.436;-2.742;2023-03-25T09:02:40;16.30;65.30
33863;DHT22;20158;51.436;-2.742;2023-03-25T09:05:08;16.40;65.20
33863;DHT22;20158;51.436;-2.742;2023-03-25T09:07:36;16.40;65.00
33863;DHT22;20158;51.436;-2.742;2023-03-25T09:10:03;16.40;64.80
33863;DHT22;20158;51.436;-2.742;2023-03-25T09:12:29;16.40;64.70
33863;DHT22;20158;51.436;-2.742;2023-03-25T09:14:55;16.40;64.50
33863;DHT22;20158;51.436;-2.742;2023-03-25T09:17:21;16.50;64.40
33863;DHT22;20158;51.436;-2.742;2023-03-25T09:19:47;16.50;64.30
33863;DHT22;20158;51.436;-2.742;2023-03-25T09:22:14;16.60;64.30
33863;DHT22;20158;51.436;-2.742;2023-03-25T09:24:40;16.60;64.00
33863;DHT22;20158;51.436;-2.742;2023-03-25T09:27:06;16.70;63.90
33863;DHT22;20158;51.436;-2.742;2023-03-25T09:29:33;16.80;63.80
33863;DHT22;20158;51.436;-2.742;2023-03-25T09:31:59;17.00;63.70
33863;DHT22;20158;51.436;-2.742;2023-03-25T09:34:26;17.10;63.70
33863;DHT22;20158;51.436;-2.742;2023-03-25T09:36:54;17.10;63.30
33863;DHT22;20158;51.436;-2.742;2023-03-25T09:39:20;17.20;63.20
33863;DHT22;20158;51.436;-2.742;2023-03-25T09:47:25;17.30;62.70
33863;DHT22;20158;51.436;-2.742;2023-03-25T09:49:56;17.30;62.90
33863;DHT22;20158;51.436;-2.742;2023-03-25T09:52:58;17.30;62.90
33863;DHT22;20158;51.436;-2.742;2023-03-25T09:55:29;17.40;63.10
33863;DHT22;20158;51.436;-2.742;2023-03-25T09:58:29;17.40;63.20
33863;DHT22;20158;51.436;-2.742;2023-03-25T10:06:17;17.80;63.40
33863;DHT22;20158;51.436;-2.742;2023-03-25T10:12:00;18.10;63.20
33863;DHT22;20158;51.436;-2.742;2023-03-25T10:15:55;18.10;63.10
33863;DHT22;20158;51.436;-2.742;2023-03-25T10:23:21;18.10;63.30
33863;DHT22;20158;51.436;-2.742;2023-03-25T10:26:02;18.10;64.00
33863;DHT22;20158;51.436;-2.742;2023-03-25T10:28:37;18.00;64.20
33863;DHT22;20158;51.436;-2.742;2023-03-25T10:31:06;18.00;64.40
33863;DHT22;20158;51.436;-2.742;2023-03-25T10:33:38;18.00;64.40
33863;DHT22;20158;51.436;-2.742;2023-03-25T10:36:13;18.00;64.40
33863;DHT22;20158;51.436;-2.742;2023-03-25T10:38:43;18.10;64.40
33863;DHT22;20158;51.436;-2.742;2023-03-25T10:41:38;18.20;64.00
33863;DHT22;20158;51.436;-2.742;2023-03-25T10:44:09;18.20;63.60
33863;DHT22;20158;51.436;-2.742;2023-03-25T10:46:43;18.30;63.90
33863;DHT22;20158;51.436;-2.742;2023-03-25T10:49:20;18.30;63.80
33863;DHT22;20158;51.436;-2.742;2023-03-25T10:51:55;18.40;63.80
33863;DHT22;20158;51.436;-2.742;2023-03-25T10:54:28;18.60;64.00
33863;DHT22;20158;51.436;-2.742;2023-03-25T10:57:02;18.70;63.80
33863;DHT22;20158;51.436;-2.742;2023-03-25T11:02:11;19.00;63.60
33863;DHT22;20158;51.436;-2.742;2023-03-25T11:04:42;19.10;63.70
33863;DHT22;20158;51.436;-2.742;2023-03-25T11:07:27;19.20;64.00
33863;DHT22;20158;51.436;-2.742;2023-03-25T11:12:52;19.30;63.90
33863;DHT22;20158;51.436;-2.742;2023-03-25T11:17:59;19.50;64.40
33863;DHT22;20158;51.436;-2.742;2023-03-25T11:20:30;19.70;64.50
33863;DHT22;20158;51.436;-2.742;2023-03-25T11:23:25;20.00;64.50
33863;DHT22;20158;51.436;-2.742;2023-03-25T11:25:57;20.20;63.90
33863;DHT22;20158;51.436;-2.742;2023-03-25T11:28:40;20.30;63.60
33863;DHT22;20158;51.436;-2.742;2023-03-25T11:31:10;20.40;63.10
33863;DHT22;20158;51.436;-2.742;2023-03-25T11:33:36;20.50;63.10
33863;DHT22;20158;51.436;-2.742;2023-03-25T11:38:45;20.60;62.30
33863;DHT22;20158;51.436;-2.742;2023-03-25T11:41:13;20.70;62.30
33863;DHT22;20158;51.436;-2.742;2023-03-25T11:43:39;20.70;62.20
33863;DHT22;20158;51.436;-2.742;2023-03-25T11:46:14;20.60;62.30
33863;DHT22;20158;51.436;-2.742;2023-03-25T11:48:43;20.60;62.40
33863;DHT22;20158;51.436;-2.742;2023-03-25T11:51:21;20.60;62.60
33863;DHT22;20158;51.436;-2.742;2023-03-25T11:53:55;20.60;62.80
33863;DHT22;20158;51.436;-2.742;2023-03-25T11:56:28;20.60;62.90
33863;DHT22;20158;51.436;-2.742;2023-03-25T11:58:58;20.60;62.90
33863;DHT22;20158;51.436;-2.742;2023-03-25T12:04:22;20.70;62.80
33863;DHT22;20158;51.436;-2.742;2023-03-25T12:06:58;20.80;62.90
33863;DHT22;20158;51.436;-2.742;2023-03-25T12:09:29;20.80;63.00
33863;DHT22;20158;51.436;-2.742;2023-03-25T12:12:09;20.80;63.10
33863;DHT22;20158;51.436;-2.742;2023-03-25T12:17:37;21.10;65.30
33863;DHT22;20158;51.436;-2.742;2023-03-25T12:23:11;21.50;66.30
33863;DHT22;20158;51.436;-2.742;2023-03-25T12:26:05;21.70;67.40
33863;DHT22;20158;51.436;-2.742;2023-03-25T12:28:36;21.90;67.40
33863;DHT22;20158;51.436;-2.742;2023-03-25T12:36:56;22.20;66.60
33863;DHT22;20158;51.436;-2.742;2023-03-25T12:42:04;22.20;66.00
33863;DHT22;20158;51.436;-2.742;2023-03-25T12:47:42;22.30;65.20
33863;DHT22;20158;51.436;-2.742;2023-03-25T12:55:49;22.60;64.00
33863;DHT22;20158;51.436;-2.742;2023-03-25T13:09:25;22.20;62.90
33863;DHT22;20158;51.436;-2.742;2023-03-25T13:12:00;22.10;62.30
33863;DHT22;20158;51.436;-2.742;2023-03-25T13:15:34;22.00;62.00
33863;DHT22;20158;51.436;-2.742;2023-03-25T13:20:35;21.80;61.30
33863;DHT22;20158;51.436;-2.742;2023-03-25T13:23:05;21.80;61.20
33863;DHT22;20158;51.436;-2.742;2023-03-25T13:28:16;21.80;60.50
33863;DHT22;20158;51.436;-2.742;2023-03-25T13:30:47;21.90;60.50
33863;DHT22;20158;51.436;-2.742;2023-03-25T13:33:22;21.90;60.20
33863;DHT22;20158;51.436;-2.742;2023-03-25T13:36:14;22.00;59.80
33863;DHT22;20158;51.436;-2.742;2023-03-25T13:38:53;22.10;59.70
33863;DHT22;20158;51.436;-2.742;2023-03-25T13:41:30;22.20;59.30
33863;DHT22;20158;51.436;-2.742;2023-03-25T13:44:07;22.30;59.20
33863;DHT22;20158;51.436;-2.742;2023-03-25T13:46:43;22.40;59.10
33863;DHT22;20158;51.436;-2.742;2023-03-25T13:49:20;22.50;58.80
33863;DHT22;20158;51.436;-2.742;2023-03-25T13:51:48;22.50;58.40
33863;DHT22;20158;51.436;-2.742;2023-03-25T13:54:26;22.60;58.40
33863;DHT22;20158;51.436;-2.742;2023-03-25T14:13:44;23.60;57.80
33863;DHT22;20158;51.436;-2.742;2023-03-25T14:16:18;23.70;57.60
33863;DHT22;20158;51.436;-2.742;2023-03-25T14:18:48;23.90;57.30
33863;DHT22;20158;51.436;-2.742;2023-03-25T14:21:31;24.10;57.20
33863;DHT22;20158;51.436;-2.742;2023-03-25T14:24:51;24.20;56.60
33863;DHT22;20158;51.436;-2.742;2023-03-25T14:27:06;24.40;56.60
33863;DHT22;20158;51.436;-2.742;2023-03-25T14:29:54;24.40;56.40
33863;DHT22;20158;51.436;-2.742;2023-03-25T14:34:49;24.30;55.90
33863;DHT22;20158;51.436;-2.742;2023-03-25T14:37:26;24.30;55.80
33863;DHT22;20158;51.436;-2.742;2023-03-25T14:39:56;24.30;55.50
33863;DHT22;20158;51.436;-2.742;2023-03-25T14:42:40;24.30;55.60
33863;DHT22;20158;51.436;-2.742;2023-03-25T14:45:38;24.30;55.30
33863;DHT22;20158;51.436;-2.742;2023-03-25T14:48:22;24.20;54.70
33863;DHT22;20158;51.436;-2.742;2023-03-25T14:54:03;24.20;54.60
33863;DHT22;20158;51.436;-2.742;2023-03-25T14:56:46;24.20;55.10
33863;DHT22;20158;51.436;-2.742;2023-03-25T14:59:20;24.10;55.30
33863;DHT22;20158;51.436;-2.742;2023-03-25T15:01:48;24.10;55.00
33863;DHT22;20158;51.436;-2.742;2023-03-25T15:04:32;24.00;54.80
33863;DHT22;20158;51.436;-2.742;2023-03-25T15:07:00;23.90;55.00
33863;DHT22;20158;51.436;-2.742;2023-03-25T15:09:28;23.90;55.40
33863;DHT22;20158;51.436;-2.742;2023-03-25T15:12:02;23.80;55.30
33863;DHT22;20158;51.436;-2.742;2023-03-25T15:14:34;23.80;55.50
33863;DHT22;20158;51.436;-2.742;2023-03-25T15:17:03;23.70;55.80
33863;DHT22;20158;51.436;-2.742;2023-03-25T15:25:56;23.50;56.50
33863;DHT22;20158;51.436;-2.742;2023-03-25T15:28:39;23.40;56.70
33863;DHT22;20158;51.436;-2.742;2023-03-25T15:31:36;23.30;56.90
33863;DHT22;20158;51.436;-2.742;2023-03-25T15:37:22;22.90;56.70
33863;DHT22;20158;51.436;-2.742;2023-03-25T15:43:43;22.50;56.30
33863;DHT22;20158;51.436;-2.742;2023-03-25T15:54:53;22.10;55.80
33863;DHT22;20158;51.436;-2.742;2023-03-25T16:00:34;22.00;55.50
33863;DHT22;20158;51.436;-2.742;2023-03-25T16:05:33;21.90;55.40
33863;DHT22;20158;51.436;-2.742;2023-03-25T16:08:09;21.80;55.00
33863;DHT22;20158;51.436;-2.742;2023-03-25T16:10:36;21.80;54.60
33863;DHT22;20158;51.436;-2.742;2023-03-25T16:13:08;21.70;54.50
33863;DHT22;20158;51.436;-2.742;2023-03-25T16:15:35;21.60;54.60
33863;DHT22;20158;51.436;-2.742;2023-03-25T16:18:04;21.40;54.30
33863;DHT22;20158;51.436;-2.742;2023-03-25T16:20:33;21.30;54.30
33863;DHT22;20158;51.436;-2.742;2023-03-25T16:23:00;21.10;54.50
33863;DHT22;20158;51.436;-2.742;2023-03-25T16:25:40;21.00;54.80
33863;DHT22;20158;51.436;-2.742;2023-03-25T16:28:13;20.90;55.30
33863;DHT22;20158;51.436;-2.742;2023-03-25T16:30:41;20.80;55.50
33863;DHT22;20158;51.436;-2.742;2023-03-25T16:35:44;20.60;55.90
33863;DHT22;20158;51.436;-2.742;2023-03-25T16:38:14;20.60;56.30
33863;DHT22;20158;51.436;-2.742;2023-03-25T16:40:42;20.50;56.30
33863;DHT22;20158;51.436;-2.742;2023-03-25T16:43:13;20.50;56.40
33863;DHT22;20158;51.436;-2.742;2023-03-25T16:45:42;20.40;56.30
33863;DHT22;20158;51.436;-2.742;2023-03-25T16:48:15;20.40;56.50
33863;DHT22;20158;51.436;-2.742;2023-03-25T16:50:42;20.40;56.80
33863;DHT22;20158;51.436;-2.742;2023-03-25T16:53:12;20.30;56.70
33863;DHT22;20158;51.436;-2.742;2023-03-25T16:56:47;20.30;56.90
33863;DHT22;20158;51.436;-2.742;2023-03-25T16:59:10;20.30;57.00
33863;DHT22;20158;51.436;-2.742;2023-03-25T17:01:42;20.20;57.00
33863;DHT22;20158;51.436;-2.742;2023-03-25T17:04:26;20.20;57.10
33863;DHT22;20158;51.436;-2.742;2023-03-25T17:07:10;20.10;56.90
33863;DHT22;20158;51.436;-2.742;2023-03-25T17:09:37;20.00;56.90
33863;DHT22;20158;51.436;-2.742;2023-03-25T17:12:10;20.00;57.10
33863;DHT22;20158;51.436;-2.742;2023-03-25T17:14:43;19.90;57.00
33863;DHT22;20158;51.436;-2.742;2023-03-25T17:17:31;19.80;57.00
33863;DHT22;20158;51.436;-2.742;2023-03-25T17:20:03;19.70;57.10
33863;DHT22;20158;51.436;-2.742;2023-03-25T17:22:35;19.60;57.10
33863;DHT22;20158;51.436;-2.742;2023-03-25T17:25:26;19.50;57.10
33863;DHT22;20158;51.436;-2.742;2023-03-25T17:27:55;19.50;57.40
33863;DHT22;20158;51.436;-2.742;2023-03-25T17:32:53;19.30;57.50
33863;DHT22;20158;51.436;-2.742;2023-03-25T17:35:33;19.30;57.70
33863;DHT22;20158;51.436;-2.742;2023-03-25T17:37:59;19.30;57.90
33863;DHT22;20158;51.436;-2.742;2023-03-25T17:40:26;19.30;58.10
33863;DHT22;20158;51.436;-2.742;2023-03-25T17:42:54;19.30;58.40
33863;DHT22;20158;51.436;-2.742;2023-03-25T17:45:22;19.30;59.30
33863;DHT22;20158;51.436;-2.742;2023-03-25T17:47:50;19.30;58.90
33863;DHT22;20158;51.436;-2.742;2023-03-25T17:50:22;19.30;59.00
33863;DHT22;20158;51.436;-2.742;2023-03-25T17:52:50;19.20;59.00
33863;DHT22;20158;51.436;-2.742;2023-03-25T17:55:16;19.20;59.10
33863;DHT22;20158;51.436;-2.742;2023-03-25T17:57:42;19.10;59.00
33863;DHT22;20158;51.436;-2.742;2023-03-25T18:00:14;19.00;58.60
33863;DHT22;20158;51.436;-2.742;2023-03-25T18:02:44;18.90;58.40
33863;DHT22;20158;51.436;-2.742;2023-03-25T18:05:10;18.70;58.30
33863;DHT22;20158;51.436;-2.742;2023-03-25T18:07:36;18.60;58.40
33863;DHT22;20158;51.436;-2.742;2023-03-25T18:10:13;18.60;58.80
33863;DHT22;20158;51.436;-2.742;2023-03-25T18:12:40;18.50;59.00
33863;DHT22;20158;51.436;-2.742;2023-03-25T18:15:07;18.40;59.00
33863;DHT22;20158;51.436;-2.742;2023-03-25T18:17:33;18.40;59.30
33863;DHT22;20158;51.436;-2.742;2023-03-25T18:19:59;18.40;59.50
33863;DHT22;20158;51.436;-2.742;2023-03-25T18:22:25;18.30;59.50
33863;DHT22;20158;51.436;-2.742;2023-03-25T18:24:51;18.30;59.80
33863;DHT22;20158;51.436;-2.742;2023-03-25T18:27:17;18.20;59.80
33863;DHT22;20158;51.436;-2.742;2023-03-25T18:29:45;18.30;60.10
33863;DHT22;20158;51.436;-2.742;2023-03-25T18:32:12;18.20;60.00